Terminal Aerodrome Forecast
Issued by NWS

Home | Current Version | Previous Version | Text Only | Print | Product List | Glossary On
Versions: 1 2 3 4 5 6 7 8 9 10 11 12 13 14 15 16 17 18 19 20 21 22 23 24 25 26 27 28
000
FTUS43 KDLH 281100
TAFHIB
TAF
KHIB 281121Z 2812/2912 00000KT 1/4SM FG VV002
     FM281300 VRB03KT 1 1/2SM BR SCT004 OVC008
     FM281400 16005KT P6SM SCT040
      TEMPO 2817/2820 BKN040
     FM282100 16006KT P6SM SCT045 BKN080
     FM290400 14004KT P6SM SCT040 BKN060 PROB30 2904/2909 6SM -SHRA
      BR BKN035
     FM290900 VRB03KT 5SM BR VCSH BKN015 OVC035=

USA.gov is the U.S. government's official web portal to all federal, state and local government web resources and services.